Time;durP1;ratioP1;P1;durP2;ratioP2;P2;SDS_P1;SDS_P2;PMS_P1;PMS_P2;Temp;Humidity;BMP_temperature;BMP_pressure;BME280_temperature;BME280_humidity;BME280_pressure;Samples;Min_cycle;Max_cycle;Signal;HPM_P1;HPM_P2
2023/03/14 00:01:33;;;;;;;8.73;2.70;;;;;;;11.08;100.00;98813.44;4976456;28;20080;-89
2023/03/14 00:03:59;;;;;;;8.33;2.80;;;;;;;11.04;100.00;98801.50;5002135;28;20116;-91
2023/03/14 00:06:25;;;;;;;7.97;2.57;;;;;;;11.10;99.30;98811.31;4937324;28;20157;-91
2023/03/14 00:08:51;;;;;;;9.07;2.57;;;;;;;11.00;99.98;98825.59;4979680;28;20065;-93
2023/03/14 00:11:21;;;;;;;5.70;2.03;;;;;;;11.08;97.71;98818.88;4962227;28;20069;-90
2023/03/14 00:13:50;;;;;;;7.70;2.10;;;;;;;11.14;95.24;98823.25;4978775;28;20096;-91
2023/03/14 00:16:16;;;;;;;9.57;2.30;;;;;;;10.96;96.95;98805.53;5002588;28;20034;-91
2023/03/14 00:18:42;;;;;;;7.90;2.20;;;;;;;11.05;94.29;98805.84;4975270;28;20046;-91
2023/03/14 00:21:09;;;;;;;7.57;2.30;;;;;;;10.92;95.79;98805.25;4981109;28;20972;-90
2023/03/14 00:23:38;;;;;;;9.07;2.23;;;;;;;10.90;95.39;98812.81;4994747;28;20105;-83
2023/03/14 00:26:06;;;;;;;6.30;2.00;;;;;;;10.88;94.53;98814.16;4991329;28;20030;-83
2023/03/14 00:28:31;;;;;;;8.53;2.20;;;;;;;10.88;93.16;98825.00;4974575;28;20034;-83
2023/03/14 00:30:57;;;;;;;7.90;2.17;;;;;;;10.89;93.00;98827.47;4969754;28;20091;-83
2023/03/14 00:33:23;;;;;;;9.17;2.67;;;;;;;10.83;93.58;98825.00;4990021;28;20042;-83
2023/03/14 00:35:56;;;;;;;7.33;2.17;;;;;;;10.77;93.24;98835.81;4968110;28;20041;-83
2023/03/14 00:38:22;;;;;;;9.93;2.70;;;;;;;10.74;92.97;98830.09;4946252;28;20043;-91
2023/03/14 00:40:47;;;;;;;10.33;2.63;;;;;;;10.66;93.68;98836.00;4995807;28;20045;-91
2023/03/14 00:43:12;;;;;;;9.90;2.60;;;;;;;10.68;92.81;98842.78;4950189;28;20400;-91
2023/03/14 00:45:38;;;;;;;8.43;2.33;;;;;;;10.66;92.89;98838.72;4994390;28;20405;-91
2023/03/14 00:48:03;;;;;;;9.67;2.43;;;;;;;10.54;92.83;98839.72;4976367;28;20448;-90
2023/03/14 00:50:29;;;;;;;8.83;2.20;;;;;;;10.55;91.09;98841.38;4954619;28;20821;-83
2023/03/14 00:52:54;;;;;;;7.93;1.97;;;;;;;10.60;91.07;98846.00;4991971;28;20038;-91
2023/03/14 00:55:19;;;;;;;9.57;2.30;;;;;;;10.51;91.50;98842.13;4965278;28;20543;-92
2023/03/14 00:57:45;;;;;;;9.43;2.20;;;;;;;10.51;91.79;98853.75;4936662;28;20069;-91
2023/03/14 01:00:12;;;;;;;9.67;2.20;;;;;;;10.52;91.84;98849.97;4988653;28;20038;-90
2023/03/14 01:02:37;;;;;;;7.43;2.23;;;;;;;10.51;92.07;98842.94;4976713;28;20052;-91
2023/03/14 01:05:03;;;;;;;7.73;2.73;;;;;;;10.46;92.29;98841.03;4998245;28;20534;-91
2023/03/14 01:07:29;;;;;;;8.70;2.40;;;;;;;10.45;92.59;98836.66;4965278;28;20033;-91
2023/03/14 01:09:54;;;;;;;6.57;1.90;;;;;;;10.43;92.12;98829.88;4965557;28;20375;-90
2023/03/14 01:12:20;;;;;;;8.67;2.20;;;;;;;10.50;91.62;98829.66;4978865;28;20857;-92
2023/03/14 01:14:45;;;;;;;7.03;2.20;;;;;;;10.45;91.99;98830.44;4964174;28;20050;-89
2023/03/14 01:17:10;;;;;;;8.53;2.23;;;;;;;10.45;91.53;98831.25;4997171;28;21785;-91
2023/03/14 01:19:36;;;;;;;8.47;2.27;;;;;;;10.43;92.49;98833.44;4993066;28;20109;-91
2023/03/14 01:22:01;;;;;;;10.33;2.83;;;;;;;10.38;92.88;98827.16;4982026;28;21915;-91
2023/03/14 01:24:27;;;;;;;9.60;2.10;;;;;;;10.35;93.73;98825.78;4967830;28;20064;-90
2023/03/14 01:26:52;;;;;;;8.57;2.10;;;;;;;10.30;93.78;98825.72;4941145;28;20057;-91
2023/03/14 01:29:17;;;;;;;9.03;2.30;;;;;;;10.25;93.34;98812.97;4948486;28;20034;-83
2023/03/14 01:31:43;;;;;;;7.40;2.00;;;;;;;10.29;93.16;98819.50;4954040;28;20039;-83
2023/03/14 01:34:08;;;;;;;8.80;2.20;;;;;;;10.37;91.87;98815.50;4995920;28;20034;-83
2023/03/14 01:36:35;;;;;;;7.37;2.10;;;;;;;10.42;90.95;98826.38;4992190;28;20117;-83
2023/03/14 01:39:00;;;;;;;5.40;2.00;;;;;;;10.33;91.46;98808.13;4969795;28;20057;-82
2023/03/14 01:41:26;;;;;;;8.30;1.80;;;;;;;10.29;92.39;98813.25;4976930;28;20121;-83
2023/03/14 01:43:52;;;;;;;5.97;2.10;;;;;;;10.33;92.78;98810.84;4994328;28;20112;-83
2023/03/14 01:46:24;;;;;;;8.47;2.00;;;;;;;10.25;93.36;98796.72;4977555;28;20039;-83
2023/03/14 01:49:08;;;;;;;8.23;1.87;;;;;;;10.36;92.83;98799.53;4985531;28;20071;-83
2023/03/14 01:51:56;;;;;;;8.75;2.13;;;;;;;10.32;92.29;98791.06;4995138;28;20035;-83
2023/03/14 01:54:33;;;;;;;6.60;1.93;;;;;;;10.31;91.68;98790.25;4992993;28;20057;-83
2023/03/14 01:57:06;;;;;;;8.60;2.10;;;;;;;10.21;92.17;98768.53;4992381;28;20056;-83
2023/03/14 01:59:32;;;;;;;6.03;1.90;;;;;;;10.21;93.02;98783.97;4983778;28;20037;-83
2023/03/14 02:02:00;;;;;;;6.50;1.70;;;;;;;10.21;93.51;98773.94;4991816;28;20034;-83
2023/03/14 02:04:30;;;;;;;7.07;2.43;;;;;;;10.13;95.28;98796.91;4994651;28;20050;-83
2023/03/14 02:07:04;;;;;;;8.37;2.23;;;;;;;10.02;96.94;98759.19;4993186;28;20043;-83
2023/03/14 02:09:30;;;;;;;10.35;2.28;;;;;;;9.99;97.44;98773.25;4986961;28;20039;-83
2023/03/14 02:11:56;;;;;;;8.90;2.33;;;;;;;9.93;97.65;98781.31;4967121;28;20109;-83
2023/03/14 02:14:34;;;;;;;8.60;2.23;;;;;;;9.92;98.52;98784.28;4992293;28;20030;-83
2023/03/14 02:17:03;;;;;;;8.83;2.13;;;;;;;9.82;99.18;98787.72;4993945;28;20026;-83
2023/03/14 02:19:43;;;;;;;10.57;2.30;;;;;;;9.95;98.09;98786.47;4975647;28;20117;-83
2023/03/14 02:22:11;;;;;;;7.30;2.13;;;;;;;9.91;99.21;98780.78;4993801;28;20593;-83
2023/03/14 02:24:48;;;;;;;10.63;2.57;;;;;;;9.79;100.00;98780.13;4975327;28;20057;-83
2023/03/14 02:27:16;;;;;;;10.10;2.57;;;;;;;9.63;100.00;98780.00;4985246;28;20058;-83
2023/03/14 02:29:58;;;;;;;12.40;2.67;;;;;;;9.61;100.00;98781.31;4992745;28;20049;-83
2023/03/14 02:32:25;;;;;;;12.00;2.73;;;;;;;9.67;100.00;98776.75;4968613;28;20589;-83
2023/03/14 02:34:57;;;;;;;11.77;2.80;;;;;;;9.70;100.00;98766.25;4991658;28;20125;-82
2023/03/14 02:37:30;;;;;;;13.37;3.07;;;;;;;9.70;100.00;98778.97;4991643;28;20188;-82
2023/03/14 02:39:55;;;;;;;9.33;2.40;;;;;;;9.82;100.00;98763.38;4992559;28;20046;-82
2023/03/14 02:42:21;;;;;;;8.83;2.50;;;;;;;9.75;100.00;98760.91;4974511;28;20036;-83
2023/03/14 02:44:54;;;;;;;11.73;2.80;;;;;;;9.75;100.00;98766.31;4992754;28;20114;-83
2023/03/14 02:47:26;;;;;;;8.47;2.67;;;;;;;9.74;100.00;98766.56;4974670;28;20046;-83
2023/03/14 02:49:56;;;;;;;12.37;3.03;;;;;;;9.79;100.00;98767.44;4992932;28;20034;-83
2023/03/14 02:52:21;;;;;;;13.57;3.20;;;;;;;9.84;100.00;98769.34;4969691;28;20054;-83
2023/03/14 02:54:46;;;;;;;12.77;2.67;;;;;;;9.92;100.00;98765.34;4989852;28;20050;-83
2023/03/14 02:57:12;;;;;;;12.30;2.67;;;;;;;9.91;100.00;98771.84;4948725;28;20080;-83
2023/03/14 02:59:37;;;;;;;11.93;2.70;;;;;;;9.83;100.00;98756.88;4954228;28;20394;-83
2023/03/14 03:02:02;;;;;;;10.63;2.70;;;;;;;9.82;100.00;98757.16;4993143;28;20035;-83
2023/03/14 03:04:28;;;;;;;12.17;2.83;;;;;;;9.84;100.00;98761.22;4938289;28;20046;-83
2023/03/14 03:06:53;;;;;;;12.33;2.70;;;;;;;9.85;100.00;98759.34;4966157;28;20042;-83
2023/03/14 03:09:19;;;;;;;10.67;2.83;;;;;;;9.87;100.00;98763.41;4967270;28;20042;-83
2023/03/14 03:11:44;;;;;;;10.73;2.70;;;;;;;9.89;100.00;98760.47;4975541;28;20038;-83
2023/03/14 03:14:09;;;;;;;11.23;2.63;;;;;;;9.92;100.00;98757.25;4998180;28;20046;-91
2023/03/14 03:16:35;;;;;;;10.87;2.70;;;;;;;9.90;100.00;98762.91;4979091;28;20386;-90
2023/03/14 03:19:00;;;;;;;10.93;2.87;;;;;;;9.94;100.00;98774.00;4949033;28;20118;-90
2023/03/14 03:21:25;;;;;;;13.27;3.20;;;;;;;9.96;100.00;98766.47;5001162;28;20405;-91
2023/03/14 03:23:51;;;;;;;12.23;2.77;;;;;;;9.92;100.00;98766.16;4993390;28;20085;-91
2023/03/14 03:26:16;;;;;;;12.70;2.60;;;;;;;9.95;100.00;98759.41;4996872;28;20034;-91
2023/03/14 03:28:41;;;;;;;11.37;2.80;;;;;;;9.91;100.00;98742.09;4979557;28;20046;-90
2023/03/14 03:31:11;;;;;;;10.30;2.70;;;;;;;9.94;100.00;98747.78;4962607;28;20124;-90
2023/03/14 03:33:37;;;;;;;8.70;2.47;;;;;;;9.86;100.00;98744.75;4965621;28;20038;-90
2023/03/14 03:36:03;;;;;;;9.80;2.50;;;;;;;9.92;100.00;98752.63;4943875;28;20038;-91
2023/03/14 03:38:28;;;;;;;10.30;2.70;;;;;;;9.92;100.00;98744.53;4967872;28;20049;-83
2023/03/14 03:40:54;;;;;;;9.37;2.43;;;;;;;9.95;100.00;98757.56;4947564;28;20046;-83
2023/03/14 03:43:19;;;;;;;11.70;2.90;;;;;;;9.95;100.00;98738.63;4988385;28;20034;-83
2023/03/14 03:45:44;;;;;;;11.13;3.70;;;;;;;9.96;100.00;98734.81;4974639;28;20053;-83
2023/03/14 03:48:10;;;;;;;9.77;2.57;;;;;;;9.95;100.00;98754.00;4972559;28;20428;-83
2023/03/14 03:50:35;;;;;;;11.27;3.10;;;;;;;9.94;100.00;98745.09;4972423;28;20045;-82
2023/03/14 03:53:01;;;;;;;10.77;3.20;;;;;;;9.97;99.90;98735.66;4993222;28;20053;-82
2023/03/14 03:55:27;;;;;;;7.27;2.90;;;;;;;9.91;99.83;98726.69;4988923;28;20060;-82
2023/03/14 03:57:53;;;;;;;7.60;2.37;;;;;;;9.92;99.62;98732.91;4990774;28;21752;-83
2023/03/14 04:00:18;;;;;;;9.47;2.27;;;;;;;9.92;99.37;98746.41;4997838;28;20034;-92
2023/03/14 04:02:44;;;;;;;8.90;2.10;;;;;;;9.95;98.99;98735.06;4998808;28;20038;-92
2023/03/14 04:05:09;;;;;;;7.47;2.10;;;;;;;9.85;100.00;98735.81;4980339;28;20042;-91
2023/03/14 04:07:35;;;;;;;9.30;2.33;;;;;;;9.83;100.00;98734.44;4956159;28;20045;-90
2023/03/14 04:10:00;;;;;;;7.13;2.10;;;;;;;9.85;99.49;98729.59;4935866;28;20042;-90
2023/03/14 04:12:26;;;;;;;10.10;2.20;;;;;;;9.86;99.57;98742.88;4953375;28;20145;-90
2023/03/14 04:14:51;;;;;;;6.47;1.83;;;;;;;9.93;99.10;98743.44;4965378;28;20383;-90
2023/03/14 04:17:16;;;;;;;5.83;2.00;;;;;;;9.87;99.85;98730.94;4974384;28;20050;-82
2023/03/14 04:19:42;;;;;;;9.17;2.10;;;;;;;9.71;100.00;98731.91;4989365;28;20058;-83
2023/03/14 04:22:08;;;;;;;8.80;2.40;;;;;;;9.65;100.00;98727.56;4990512;28;20046;-83
2023/03/14 04:24:34;;;;;;;9.60;2.63;;;;;;;9.70;100.00;98724.91;4990046;28;20058;-82
2023/03/14 04:26:59;;;;;;;5.83;2.10;;;;;;;9.62;100.00;98737.78;4991641;28;20383;-83
2023/03/14 04:29:25;;;;;;;9.53;2.40;;;;;;;9.49;100.00;98724.69;4990865;28;20072;-83
2023/03/14 04:31:50;;;;;;;8.57;2.47;;;;;;;9.53;100.00;98719.59;4990249;28;20491;-91
2023/03/14 04:34:16;;;;;;;10.50;3.10;;;;;;;9.54;100.00;98740.16;4942473;28;20039;-91
2023/03/14 04:36:41;;;;;;;8.73;2.97;;;;;;;9.54;100.00;98723.94;4963714;28;20057;-90
2023/03/14 04:39:06;;;;;;;11.03;3.50;;;;;;;9.51;100.00;98725.28;4976549;28;20038;-91
2023/03/14 04:41:32;;;;;;;13.30;3.67;;;;;;;9.46;100.00;98722.50;4956724;28;20047;-90
2023/03/14 04:43:57;;;;;;;9.80;3.20;;;;;;;9.61;100.00;98719.97;4978937;28;20379;-89
2023/03/14 04:46:23;;;;;;;8.03;2.40;;;;;;;9.50;100.00;98714.72;4988000;28;20510;-82
2023/03/14 04:48:48;;;;;;;8.47;2.70;;;;;;;9.48;100.00;98722.25;4946737;28;20056;-83
2023/03/14 04:51:13;;;;;;;5.40;1.90;;;;;;;9.61;100.00;98714.56;4987303;28;20402;-83
2023/03/14 04:53:39;;;;;;;8.33;2.30;;;;;;;9.43;100.00;98710.31;4937060;28;20034;-83
2023/03/14 04:56:05;;;;;;;7.97;2.63;;;;;;;9.40;100.00;98715.44;4968936;28;20119;-83
2023/03/14 04:58:31;;;;;;;6.67;2.13;;;;;;;9.31;100.00;98709.66;4988627;28;20065;-82
2023/03/14 05:01:02;;;;;;;4.40;2.00;;;;;;;9.26;100.00;98707.75;4991029;28;20494;-83
2023/03/14 05:03:27;;;;;;;6.17;1.93;;;;;;;9.18;100.00;98719.03;4989167;28;20042;-82
2023/03/14 05:05:53;;;;;;;4.03;1.50;;;;;;;9.20;100.00;98713.34;4990336;28;20035;-83
2023/03/14 05:08:18;;;;;;;5.90;1.80;;;;;;;9.14;100.00;98723.31;4963681;28;20034;-82
2023/03/14 05:10:43;;;;;;;5.40;1.97;;;;;;;8.92;100.00;98726.84;4963742;28;20553;-82
2023/03/14 05:13:09;;;;;;;3.40;1.73;;;;;;;8.86;100.00;98722.44;4935480;28;20379;-82
2023/03/14 05:15:34;;;;;;;5.70;2.00;;;;;;;8.67;100.00;98708.47;4987782;28;20048;-82
2023/03/14 05:18:00;;;;;;;7.40;2.77;;;;;;;8.57;100.00;98709.16;4971859;28;20030;-89
2023/03/14 05:20:25;;;;;;;5.93;3.30;;;;;;;8.51;100.00;98715.53;4996970;28;20091;-90
2023/03/14 05:22:50;;;;;;;10.33;4.07;;;;;;;8.42;100.00;98712.44;4976429;28;20045;-89
2023/03/14 05:25:16;;;;;;;9.57;3.93;;;;;;;8.39;100.00;98709.41;4995032;28;20388;-90
2023/03/14 05:27:41;;;;;;;9.40;4.13;;;;;;;8.43;100.00;98706.00;4977492;28;20042;-90
2023/03/14 05:30:08;;;;;;;12.87;5.40;;;;;;;8.34;100.00;98701.28;4997215;28;20054;-90
2023/03/14 05:32:33;;;;;;;10.63;4.53;;;;;;;8.42;100.00;98711.63;4970674;28;20038;-90
2023/03/14 05:34:59;;;;;;;11.33;4.57;;;;;;;8.41;100.00;98715.41;4994829;28;20482;-90
2023/03/14 05:37:28;;;;;;;7.53;2.97;;;;;;;8.35;100.00;98724.47;4994056;28;20033;-90
2023/03/14 05:39:53;;;;;;;5.33;2.37;;;;;;;8.41;100.00;98712.69;4992057;28;20038;-90
2023/03/14 05:42:18;;;;;;;5.10;2.57;;;;;;;8.49;100.00;98716.88;4994913;28;20549;-90
2023/03/14 05:44:44;;;;;;;6.40;2.47;;;;;;;8.48;100.00;98705.25;4994461;28;20058;-91
2023/03/14 05:47:09;;;;;;;7.17;2.90;;;;;;;8.46;100.00;98704.69;4982911;28;20045;-91
2023/03/14 05:49:35;;;;;;;6.40;2.93;;;;;;;8.47;100.00;98700.91;4989172;28;20042;-91
2023/03/14 05:52:00;;;;;;;6.37;3.13;;;;;;;8.47;100.00;98692.81;4976204;28;20038;-90
2023/03/14 05:54:26;;;;;;;6.07;3.03;;;;;;;8.46;100.00;98683.13;4940663;28;20420;-90
2023/03/14 05:56:51;;;;;;;6.30;3.17;;;;;;;8.55;100.00;98681.59;4998224;28;20042;-90
2023/03/14 05:59:16;;;;;;;8.63;4.27;;;;;;;8.54;100.00;98685.38;4977512;28;20128;-83
2023/03/14 06:01:42;;;;;;;11.03;4.53;;;;;;;8.50;100.00;98686.09;4971807;28;20431;-82
2023/03/14 06:04:07;;;;;;;10.27;4.70;;;;;;;8.57;100.00;98681.34;4988229;28;20058;-83
2023/03/14 06:06:33;;;;;;;10.33;4.00;;;;;;;8.60;100.00;98687.06;4965672;28;20076;-83
2023/03/14 06:08:58;;;;;;;9.43;4.10;;;;;;;8.63;100.00;98674.13;4964213;28;20077;-83
2023/03/14 06:11:23;;;;;;;10.13;4.30;;;;;;;8.68;100.00;98669.59;4986543;28;20124;-83
2023/03/14 06:13:49;;;;;;;6.93;3.67;;;;;;;8.66;100.00;98689.81;4956027;28;20045;-83
2023/03/14 06:16:14;;;;;;;7.13;3.57;;;;;;;8.68;100.00;98679.59;4976801;28;20046;-89
2023/03/14 06:18:39;;;;;;;5.90;3.70;;;;;;;8.65;100.00;98690.88;4988599;28;20656;-91
2023/03/14 06:21:06;;;;;;;7.47;3.90;;;;;;;8.66;100.00;98695.22;4995419;28;20054;-91
2023/03/14 06:23:32;;;;;;;8.90;4.30;;;;;;;8.65;100.00;98693.56;4962855;28;20113;-90
2023/03/14 06:25:57;;;;;;;8.60;4.20;;;;;;;8.69;100.00;98690.13;4952490;28;20102;-90
2023/03/14 06:28:23;;;;;;;7.37;4.43;;;;;;;8.63;100.00;98684.94;4998787;28;20045;-91
2023/03/14 06:30:48;;;;;;;8.50;5.07;;;;;;;8.64;100.00;98691.97;5000191;28;20092;-90
2023/03/14 06:33:13;;;;;;;9.70;4.87;;;;;;;8.61;100.00;98680.59;4949182;28;20073;-90
2023/03/14 06:35:39;;;;;;;8.83;4.83;;;;;;;8.68;100.00;98698.50;4998018;28;20367;-90
2023/03/14 06:38:04;;;;;;;8.13;4.30;;;;;;;8.68;100.00;98693.91;4968058;28;20137;-90
2023/03/14 06:40:30;;;;;;;6.83;4.30;;;;;;;8.73;100.00;98701.22;4995823;28;20038;-91
2023/03/14 06:42:55;;;;;;;9.20;4.47;;;;;;;8.75;100.00;98704.50;4998524;28;20046;-89
2023/03/14 06:45:21;;;;;;;9.27;4.80;;;;;;;8.73;100.00;98701.22;4969947;28;20045;-90
2023/03/14 06:47:46;;;;;;;9.03;4.90;;;;;;;8.72;100.00;98705.81;4997879;28;20042;-91
2023/03/14 06:50:11;;;;;;;7.10;4.70;;;;;;;8.74;100.00;98709.09;4967920;28;20045;-83
2023/03/14 06:52:40;;;;;;;9.47;5.23;;;;;;;8.76;100.00;98706.94;4967931;28;20042;-83
2023/03/14 06:55:07;;;;;;;8.73;4.77;;;;;;;8.86;100.00;98700.84;4958934;28;20038;-83
2023/03/14 06:57:32;;;;;;;10.37;5.60;;;;;;;8.86;100.00;98714.34;4991771;28;20057;-83
2023/03/14 06:59:57;;;;;;;10.77;5.50;;;;;;;8.90;100.00;98711.97;4997414;28;20077;-91
2023/03/14 07:02:23;;;;;;;7.53;5.33;;;;;;;8.90;100.00;98709.25;4962806;28;20057;-91
2023/03/14 07:04:48;;;;;;;9.20;5.47;;;;;;;8.88;100.00;98711.38;4996602;28;20053;-90
2023/03/14 07:07:13;;;;;;;9.90;5.60;;;;;;;8.98;100.00;98718.81;4979846;28;20042;-89
2023/03/14 07:09:39;;;;;;;7.40;5.60;;;;;;;9.01;100.00;98718.28;4970472;28;20125;-91
2023/03/14 07:12:05;;;;;;;10.73;5.60;;;;;;;8.99;100.00;98729.34;4992089;28;20054;-90
2023/03/14 07:14:30;;;;;;;9.10;6.00;;;;;;;8.97;100.00;98730.69;4994530;28;20038;-90
2023/03/14 07:16:56;;;;;;;8.93;5.60;;;;;;;8.95;100.00;98720.94;4957402;28;20508;-92
2023/03/14 07:19:22;;;;;;;10.27;6.20;;;;;;;8.84;100.00;98730.00;4996343;28;20100;-90
2023/03/14 07:21:47;;;;;;;12.07;7.00;;;;;;;8.88;100.00;98741.09;5000779;28;20056;-91
2023/03/14 07:24:13;;;;;;;11.17;6.33;;;;;;;8.85;100.00;98765.91;4999828;28;20082;-92
2023/03/14 07:26:38;;;;;;;12.57;5.43;;;;;;;8.53;100.00;98826.78;4966295;28;20041;-91
2023/03/14 07:29:03;;;;;;;3.00;2.20;;;;;;;8.03;100.00;98828.41;4997199;28;20044;-93
2023/03/14 07:31:29;;;;;;;4.10;2.30;;;;;;;7.68;100.00;98832.13;4980565;28;20081;-93
2023/03/14 07:33:55;;;;;;;4.20;1.93;;;;;;;7.39;100.00;98845.63;4997059;28;20124;-93
2023/03/14 07:36:21;;;;;;;3.70;1.67;;;;;;;7.31;100.00;98858.66;4954241;28;20030;-92
2023/03/14 07:38:46;;;;;;;2.73;1.50;;;;;;;7.20;100.00;98858.44;4965478;28;20136;-92
2023/03/14 07:41:12;;;;;;;2.93;1.80;;;;;;;7.16;100.00;98865.38;4978806;28;20095;-93
2023/03/14 07:43:37;;;;;;;3.03;1.80;;;;;;;7.11;100.00;98876.03;4971069;28;20378;-93
2023/03/14 07:46:03;;;;;;;4.30;2.10;;;;;;;7.09;100.00;98887.03;4976079;28;20034;-92
2023/03/14 07:48:28;;;;;;;3.07;1.87;;;;;;;6.99;100.00;98896.78;4963559;28;20043;-93
2023/03/14 07:50:54;;;;;;;3.97;2.00;;;;;;;6.91;100.00;98911.44;4962585;28;20034;-91
2023/03/14 07:53:22;;;;;;;4.47;2.20;;;;;;;6.81;100.00;98912.00;4993485;28;20046;-93
2023/03/14 07:55:47;;;;;;;6.37;2.07;;;;;;;6.80;100.00;98923.84;4974379;28;20125;-92
2023/03/14 07:58:14;;;;;;;3.90;2.20;;;;;;;6.73;100.00;98931.19;4981296;28;20114;-94
2023/03/14 08:00:39;;;;;;;2.10;1.90;;;;;;;6.73;100.00;98939.25;4985285;28;20125;-93
2023/03/14 08:03:04;;;;;;;2.97;1.93;;;;;;;6.75;100.00;98946.06;4988803;28;20442;-93
2023/03/14 08:05:30;;;;;;;3.43;2.00;;;;;;;6.71;100.00;98952.97;4984814;28;20045;-90
2023/03/14 08:07:55;;;;;;;3.80;2.30;;;;;;;6.69;100.00;98954.25;5000298;28;20038;-93
2023/03/14 08:10:22;;;;;;;4.37;2.47;;;;;;;6.68;100.00;98958.00;4959383;28;20506;-91
2023/03/14 08:12:49;;;;;;;5.30;2.70;;;;;;;6.67;100.00;98969.81;4988601;28;20069;-93
2023/03/14 08:15:14;;;;;;;3.80;2.60;;;;;;;6.68;100.00;98984.91;4980183;28;20092;-93
2023/03/14 08:17:39;;;;;;;6.00;2.63;;;;;;;6.63;100.00;98990.97;4999694;28;20057;-92
2023/03/14 08:20:08;;;;;;;3.80;2.63;;;;;;;6.64;100.00;98994.50;4977523;28;20042;-92
2023/03/14 08:22:33;;;;;;;6.17;2.73;;;;;;;6.72;100.00;99007.63;4943219;28;21734;-84
2023/03/14 08:24:59;;;;;;;4.23;2.60;;;;;;;6.70;100.00;99015.09;4950242;28;20066;-84
2023/03/14 08:27:24;;;;;;;5.20;2.30;;;;;;;6.77;100.00;99026.56;4952623;28;20043;-91
2023/03/14 08:29:49;;;;;;;4.03;2.07;;;;;;;6.73;100.00;99030.78;4925558;29;20058;-92
2023/03/14 08:32:15;;;;;;;5.33;2.40;;;;;;;6.80;100.00;99042.28;4917613;28;20063;-92
2023/03/14 08:34:40;;;;;;;8.27;2.60;;;;;;;6.78;100.00;99049.75;4939937;28;20047;-92
2023/03/14 08:37:06;;;;;;;4.33;2.40;;;;;;;6.84;100.00;99056.06;4939624;28;21693;-93
2023/03/14 08:39:31;;;;;;;3.50;2.20;;;;;;;6.81;100.00;99078.09;4933361;29;20039;-92
2023/03/14 08:41:56;;;;;;;5.90;2.50;;;;;;;6.82;100.00;99077.84;4927148;29;20040;-92
2023/03/14 08:44:22;;;;;;;8.10;2.33;;;;;;;6.83;100.00;99082.19;4951596;28;20043;-92
2023/03/14 08:46:47;;;;;;;7.23;2.63;;;;;;;6.79;100.00;99086.41;4940633;28;20463;-91
2023/03/14 08:49:14;;;;;;;6.83;2.53;;;;;;;6.80;100.00;99095.28;4971498;28;20145;-93
2023/03/14 08:51:40;;;;;;;4.33;2.50;;;;;;;6.85;100.00;99103.50;4960597;28;20039;-91
2023/03/14 08:54:05;;;;;;;5.10;2.30;;;;;;;6.77;100.00;99120.78;4959155;28;20054;-93
2023/03/14 08:56:30;;;;;;;8.20;3.00;;;;;;;6.80;100.00;99123.03;4959108;28;20066;-93
2023/03/14 08:58:56;;;;;;;7.97;2.90;;;;;;;6.72;100.00;99134.13;4960117;28;20427;-93
2023/03/14 09:01:23;;;;;;;6.07;2.67;;;;;;;6.67;100.00;99150.94;4952118;28;20039;-93
2023/03/14 09:03:49;;;;;;;7.07;2.60;;;;;;;6.64;100.00;99153.28;4943451;28;20088;-91
2023/03/14 09:06:17;;;;;;;5.43;2.53;;;;;;;6.56;100.00;99165.19;4948410;28;20141;-92
2023/03/14 09:08:44;;;;;;;8.50;2.60;;;;;;;6.58;100.00;99166.59;4930799;28;20078;-91
2023/03/14 09:11:09;;;;;;;5.33;2.30;;;;;;;6.53;100.00;99177.22;4953723;28;20027;-91
2023/03/14 09:13:35;;;;;;;5.10;2.10;;;;;;;6.61;100.00;99194.09;4944645;28;20058;-92
2023/03/14 09:16:01;;;;;;;8.80;2.30;;;;;;;6.56;100.00;99205.53;4958895;28;20042;-93
2023/03/14 09:18:26;;;;;;;5.90;2.60;;;;;;;6.50;100.00;99209.13;4944815;28;20379;-83
2023/03/14 09:20:52;;;;;;;5.20;3.00;;;;;;;6.53;100.00;99219.47;4955120;28;20394;-84
2023/03/14 09:23:17;;;;;;;8.43;3.60;;;;;;;6.47;100.00;99225.72;4950130;28;20104;-83
2023/03/14 09:25:43;;;;;;;9.27;3.30;;;;;;;6.52;100.00;99250.91;4987946;28;20518;-83
2023/03/14 09:28:08;;;;;;;6.00;2.90;;;;;;;6.35;100.00;99276.75;4990142;28;20050;-82
2023/03/14 09:30:33;;;;;;;2.83;1.30;;;;;;;5.95;100.00;99283.31;4987695;28;20057;-82
2023/03/14 09:32:59;;;;;;;2.87;0.90;;;;;;;5.65;100.00;99300.06;4955841;28;20173;-83
2023/03/14 09:35:25;;;;;;;1.47;0.57;;;;;;;5.60;100.00;99304.44;4986922;28;20490;-83
2023/03/14 09:37:51;;;;;;;1.53;0.50;;;;;;;5.42;100.00;99311.38;4973058;28;20042;-83
2023/03/14 09:40:18;;;;;;;1.80;0.73;;;;;;;5.35;100.00;99327.53;4989053;28;20041;-82
2023/03/14 09:42:43;;;;;;;3.20;0.90;;;;;;;5.39;100.00;99341.38;4973411;28;20040;-83
2023/03/14 09:45:18;;;;;;;2.90;0.80;;;;;;;5.50;100.00;99343.34;4949087;28;20491;-82
2023/03/14 09:47:45;;;;;;;2.83;0.90;;;;;;;5.44;100.00;99360.34;4983209;28;20199;-83
2023/03/14 09:50:15;;;;;;;4.47;1.40;;;;;;;5.45;100.00;99364.66;4974455;28;20046;-82
2023/03/14 09:52:44;;;;;;;3.90;1.37;;;;;;;5.63;100.00;99384.63;4993782;28;20053;-83
2023/03/14 09:55:15;;;;;;;3.50;1.50;;;;;;;5.67;100.00;99394.75;4993829;28;20118;-83
2023/03/14 09:57:42;;;;;;;4.70;1.50;;;;;;;5.73;100.00;99398.44;4992965;28;20046;-83
2023/03/14 10:00:15;;;;;;;4.50;1.60;;;;;;;5.88;100.00;99425.81;4971800;28;20050;-82
2023/03/14 10:02:46;;;;;;;4.27;1.50;;;;;;;6.02;100.00;99428.47;4986390;28;20031;-84
2023/03/14 10:05:17;;;;;;;5.17;1.60;;;;;;;5.97;100.00;99437.16;4986589;28;20069;-82
2023/03/14 10:07:43;;;;;;;4.87;1.30;;;;;;;6.10;100.00;99449.72;4988088;28;20089;-83
2023/03/14 10:10:17;;;;;;;7.67;2.00;;;;;;;6.22;100.00;99463.31;4969383;28;20125;-83
2023/03/14 10:12:46;;;;;;;5.20;1.48;;;;;;;6.31;100.00;99474.59;4990123;28;21788;-83
2023/03/14 10:15:17;;;;;;;9.07;1.97;;;;;;;6.15;100.00;99487.53;4987929;28;20089;-82
2023/03/14 10:17:51;;;;;;;8.57;1.90;;;;;;;6.13;100.00;99492.31;4982638;28;20031;-84
2023/03/14 10:20:36;;;;;;;6.40;2.10;;;;;;;6.05;100.00;99517.59;4966378;28;20653;-83
2023/03/14 10:23:06;;;;;;;7.33;1.87;;;;;;;6.23;100.00;99499.94;4967740;28;20044;-82
2023/03/14 10:25:36;;;;;;;8.80;2.10;;;;;;;6.09;100.00;99526.03;4983281;28;20051;-82
2023/03/14 10:28:04;;;;;;;7.77;2.10;;;;;;;6.35;100.00;99561.91;4988147;28;20053;-89
2023/03/14 10:30:44;;;;;;;8.13;2.10;;;;;;;6.13;100.00;99567.59;4993615;28;20038;-90
2023/03/14 10:33:18;;;;;;;11.63;2.77;;;;;;;6.01;100.00;99572.84;4990829;28;20038;-90
2023/03/14 10:35:44;;;;;;;9.85;2.10;;;;;;;5.99;100.00;99590.22;4985773;28;20052;-89
2023/03/14 10:38:16;;;;;;;11.57;2.50;;;;;;;5.91;100.00;99597.44;4991679;28;20353;-91
2023/03/14 10:40:52;;;;;;;12.23;2.87;;;;;;;5.94;100.00;99601.56;4991513;28;20053;-91
2023/03/14 10:43:24;;;;;;;10.00;2.20;;;;;;;6.16;100.00;99602.16;4979338;28;20039;-89
2023/03/14 10:45:58;;;;;;;9.53;2.63;;;;;;;6.31;100.00;99604.59;4996343;28;20046;-90
2023/03/14 10:48:23;;;;;;;15.88;2.85;;;;;;;6.50;100.00;99624.34;4971908;28;20038;-91
2023/03/14 10:50:55;;;;;;;14.20;3.10;;;;;;;6.70;100.00;99636.88;4991739;28;20045;-91
2023/03/14 10:53:20;;;;;;;17.37;3.23;;;;;;;6.80;100.00;99639.91;4992867;28;20035;-90
2023/03/14 10:55:46;;;;;;;13.77;3.17;;;;;;;6.74;100.00;99651.53;4994723;28;20378;-90
2023/03/14 10:58:34;;;;;;;17.33;3.40;;;;;;;6.74;100.00;99656.94;4994106;28;20046;-91
2023/03/14 11:01:09;;;;;;;17.80;3.33;;;;;;;6.92;100.00;99673.19;4972296;28;20038;-90
2023/03/14 11:03:38;;;;;;;17.93;3.50;;;;;;;7.20;100.00;99680.03;4974525;28;20031;-90
2023/03/14 11:06:32;;;;;;;15.53;3.90;;;;;;;7.38;100.00;99690.06;4956340;28;20609;-90
2023/03/14 11:09:05;;;;;;;15.52;3.25;;;;;;;7.38;100.00;99698.13;4992870;28;20035;-92
2023/03/14 11:11:31;;;;;;;18.30;3.60;;;;;;;7.30;100.00;99706.50;4975595;28;20035;-91
2023/03/14 11:14:41;;;;;;;18.53;3.43;;;;;;;7.05;100.00;99718.06;4992501;28;20476;-90
2023/03/14 11:17:25;;;;;;;16.33;3.50;;;;;;;7.07;100.00;99731.28;4906522;29;20040;-89
2023/03/14 11:20:00;;;;;;;16.97;3.53;;;;;;;6.83;100.00;99751.75;4983354;28;20048;-89
2023/03/14 11:22:43;;;;;;;12.03;3.20;;;;;;;6.37;100.00;99783.97;4973416;28;20034;-90
2023/03/14 11:25:26;;;;;;;13.87;3.23;;;;;;;6.21;100.00;99795.16;4988677;28;20050;-91
2023/03/14 11:28:19;;;;;;;14.17;2.93;;;;;;;6.23;100.00;99788.56;4989374;28;20038;-88
2023/03/14 11:31:23;;;;;;;15.63;3.37;;;;;;;6.03;100.00;99791.25;4990198;28;20038;-90
2023/03/14 11:33:57;;;;;;;20.00;3.70;;;;;;;5.76;100.00;99806.53;4893705;29;20517;-90